Terminal Aerodrome Forecast
Issued by NWS Sioux Falls, SD

Home | Current Version | Previous Version | Graphics & Text | Print | Product List | Glossary Off
Versions: 1 2 3 4 5 6 7 8 9 10 11 12 13

000
FTUS43 KFSD 171700
TAFFSD
TAF
KFSD 171720Z 1718/1818 24005KT P6SM BKN020
     FM172000 22005KT P6SM SCT025
     FM180100 19004KT P6SM BKN100
     FM180900 20004KT 6SM -TSRA BKN060CB
     FM181200 24006KT P6SM SCT060=

USA.gov is the U.S. government's official web portal to all federal, state and local government web resources and services.